Time;durP1;ratioP1;P1;durP2;ratioP2;P2;SDS_P1;SDS_P2;PMS_P1;PMS_P2;Temp;Humidity;BMP_temperature;BMP_pressure;BME280_temperature;BME280_humidity;BME280_pressure;Samples;Min_cycle;Max_cycle;Signal;HPM_P1;HPM_P2
2022/07/15 00:01:15;;;;;;;;;;;;;;;22.87;59.21;99370.34;5093783;28;20437;-68
2022/07/15 00:03:43;;;;;;;;;;;;;;;22.88;59.20;99378.09;5093869;28;19924;-67
2022/07/15 00:06:12;;;;;;;;;;;;;;;22.85;59.23;99364.41;5093755;28;20399;-68
2022/07/15 00:08:41;;;;;;;;;;;;;;;22.84;59.42;99367.94;5093771;28;19928;-68
2022/07/15 00:14:12;;;;;;;;;;;;;;;22.86;59.46;99353.06;5094085;28;20288;-68
2022/07/15 00:16:44;;;;;;;;;;;;;;;22.74;60.06;99346.78;5093735;28;19924;-68
2022/07/15 00:19:12;;;;;;;;;;;;;;;22.69;60.24;99359.22;5094027;28;19931;-68
2022/07/15 00:21:40;;;;;;;;;;;;;;;22.73;60.21;99365.06;5092774;28;19954;-67
2022/07/15 00:24:09;;;;;;;;;;;;;;;22.85;60.10;99380.00;5093584;28;19928;-67
2022/07/15 00:26:50;;;;;;;;;;;;;;;22.84;59.84;99388.75;5093993;28;19969;-68
2022/07/15 00:29:29;;;;;;;;;;;;;;;22.78;59.97;99382.13;5093595;28;19931;-68
2022/07/15 00:31:59;;;;;;;;;;;;;;;22.81;59.91;99381.13;5093526;28;19973;-67
2022/07/15 00:34:28;;;;;;;;;;;;;;;22.76;59.80;99380.53;5093583;28;20011;-68
2022/07/15 00:36:57;;;;;;;;;;;;;;;22.71;59.94;99372.13;5093001;28;19924;-67
2022/07/15 00:39:25;;;;;;;;;;;;;;;22.71;59.76;99366.94;5093564;28;19924;-68
2022/07/15 00:41:54;;;;;;;;;;;;;;;22.67;59.75;99364.47;5092590;28;20284;-69
2022/07/15 00:47:06;;;;;;;;;;;;;;;22.53;59.97;99361.78;5093488;28;19974;-67
2022/07/15 00:49:35;;;;;;;;;;;;;;;22.49;60.00;99357.66;5092323;28;20404;-67
2022/07/15 00:52:04;;;;;;;;;;;;;;;22.53;60.01;99353.16;5094498;28;19974;-68
2022/07/15 00:54:33;;;;;;;;;;;;;;;22.53;60.08;99351.38;5097248;28;19931;-68
2022/07/15 00:57:02;;;;;;;;;;;;;;;22.54;60.07;99345.25;5096921;28;19931;-68
2022/07/15 00:59:34;;;;;;;;;;;;;;;22.51;60.13;99323.75;5097207;28;19934;-68
2022/07/15 01:02:03;;;;;;;;;;;;;;;22.44;60.13;99318.06;5096040;28;20027;-68
2022/07/15 01:04:34;;;;;;;;;;;;;;;22.45;60.08;99311.94;5097047;28;19935;-68
2022/07/15 01:07:03;;;;;;;;;;;;;;;22.48;60.06;99316.94;5097963;28;19928;-68
2022/07/15 01:09:32;;;;;;;;;;;;;;;22.52;59.93;99315.03;5096815;28;19931;-68
2022/07/15 01:12:00;;;;;;;;;;;;;;;22.56;59.70;99317.38;5095842;28;19924;-68
2022/07/15 01:14:29;;;;;;;;;;;;;;;22.53;59.53;99312.34;5095736;28;19924;-68
2022/07/15 01:16:59;;;;;;;;;;;;;;;22.55;59.88;99320.06;5095509;28;19928;-68
2022/07/15 01:19:28;;;;;;;;;;;;;;;22.53;59.85;99301.94;5095681;28;19979;-68
2022/07/15 01:21:58;;;;;;;;;;;;;;;22.41;60.18;99297.41;5095310;28;19925;-68
2022/07/15 01:24:27;;;;;;;;;;;;;;;22.38;60.55;99307.16;5096452;28;19966;-68
2022/07/15 01:27:08;;;;;;;;;;;;;;;22.40;60.75;99306.16;5096752;28;19924;-67
2022/07/15 01:29:38;;;;;;;;;;;;;;;22.40;60.98;99298.34;5096266;28;19924;-68
2022/07/15 01:32:07;;;;;;;;;;;;;;;22.44;61.18;99312.84;5095091;28;20434;-67
2022/07/15 01:34:35;;;;;;;;;;;;;;;22.40;61.99;99285.34;5095370;28;20281;-67
2022/07/15 01:37:05;;;;;;;;;;;;;;;22.27;63.62;99276.53;5096198;28;19978;-67
2022/07/15 01:39:37;;;;;;;;;;;;;;;22.15;64.38;99287.59;5094992;28;19979;-67
2022/07/15 01:42:07;;;;;;;;;;;;;;;22.17;64.99;99301.34;5096125;28;19969;-67
2022/07/15 01:44:35;;;;;;;;;;;;;;;22.11;66.13;99335.47;5096296;28;19928;-67
2022/07/15 01:47:05;;;;;;;;;;;;;;;22.12;67.09;99352.78;5094733;28;19973;-67
2022/07/15 01:49:35;;;;;;;;;;;;;;;21.98;67.67;99366.47;5095970;28;19924;-67
2022/07/15 01:52:17;;;;;;;;;;;;;;;21.88;67.88;99369.66;5096295;28;19924;-67
2022/07/15 01:54:47;;;;;;;;;;;;;;;21.77;66.85;99383.16;5094953;28;19989;-70
2022/07/15 01:57:16;;;;;;;;;;;;;;;21.76;65.59;99398.81;5096334;28;19932;-70
2022/07/15 01:59:54;;;;;;;;;;;;;;;21.71;64.43;99382.63;5094611;28;19928;-69
2022/07/15 02:02:45;;;;;;;;;;;;;;;21.76;64.00;99333.88;5096220;28;20007;-70
2022/07/15 02:05:19;;;;;;;;;;;;;;;21.72;63.62;99366.09;5094344;28;19928;-69
2022/07/15 02:07:51;;;;;;;;;;;;;;;21.71;63.42;99341.91;5094517;28;19924;-70
2022/07/15 02:10:21;;;;;;;;;;;;;;;21.71;63.50;99361.84;5095570;28;19928;-70
2022/07/15 02:12:50;;;;;;;;;;;;;;;21.73;64.13;99406.75;5094265;28;19973;-71
2022/07/15 02:15:22;;;;;;;;;;;;;;;21.68;64.24;99372.38;5094515;28;19924;-71
2022/07/15 02:17:55;;;;;;;;;;;;;;;21.65;64.42;99351.75;5095441;28;20007;-70
2022/07/15 02:20:29;;;;;;;;;;;;;;;21.67;64.64;99370.69;5094515;28;20344;-70
2022/07/15 02:23:01;;;;;;;;;;;;;;;21.65;64.94;99360.38;5094706;28;20278;-70
2022/07/15 02:25:30;;;;;;;;;;;;;;;21.59;65.44;99357.25;5094291;28;19924;-69
2022/07/15 02:28:02;;;;;;;;;;;;;;;21.60;65.83;99358.94;5077401;28;19951;-70
2022/07/15 02:30:33;;;;;;;;;;;;;;;21.51;66.37;99360.25;5093793;28;19924;-70
2022/07/15 02:33:04;;;;;;;;;;;;;;;21.49;66.25;99371.63;5095128;28;19955;-70
2022/07/15 02:35:33;;;;;;;;;;;;;;;21.40;66.50;99378.13;5095035;28;20018;-70
2022/07/15 02:38:04;;;;;;;;;;;;;;;21.35;66.89;99375.72;5095295;28;20331;-70
2022/07/15 02:40:33;;;;;;;;;;;;;;;21.23;66.64;99381.56;5095034;28;20308;-70
2022/07/15 02:43:10;;;;;;;;;;;;;;;21.15;66.83;99378.47;5093782;28;19930;-69
2022/07/15 02:45:43;;;;;;;;;;;;;;;21.15;66.97;99377.63;5095140;28;20423;-70
2022/07/15 02:48:15;;;;;;;;;;;;;;;21.15;66.89;99377.63;5093938;28;19986;-70
2022/07/15 02:50:47;;;;;;;;;;;;;;;21.13;67.07;99380.31;5095129;28;19924;-70
2022/07/15 02:53:20;;;;;;;;;;;;;;;21.05;67.28;99377.25;5094793;28;19931;-69
2022/07/15 02:55:49;;;;;;;;;;;;;;;20.98;67.58;99377.56;5093857;28;19977;-70
2022/07/15 02:58:17;;;;;;;;;;;;;;;20.95;67.53;99362.13;5094918;28;20331;-70
2022/07/15 03:00:49;;;;;;;;;;;;;;;20.90;67.86;99372.75;5094936;28;20331;-70
2022/07/15 03:03:18;;;;;;;;;;;;;;;20.94;68.04;99374.28;5093395;28;19931;-70
2022/07/15 03:05:48;;;;;;;;;;;;;;;20.95;67.90;99370.78;5093255;28;19924;-70
2022/07/15 03:08:17;;;;;;;;;;;;;;;20.91;68.01;99364.06;5094455;28;19924;-70
2022/07/15 03:10:47;;;;;;;;;;;;;;;20.88;68.12;99364.19;5093266;28;19924;-70
2022/07/15 03:13:15;;;;;;;;;;;;;;;20.87;68.43;99383.28;5094435;28;20396;-70
2022/07/15 03:15:44;;;;;;;;;;;;;;;20.86;68.17;99402.34;5093866;28;19969;-70
2022/07/15 03:18:14;;;;;;;;;;;;;;;20.80;68.68;99402.66;5094289;28;19924;-70
2022/07/15 03:20:42;;;;;;;;;;;;;;;20.84;68.58;99414.56;5094293;28;19928;-70
2022/07/15 03:23:16;;;;;;;;;;;;;;;20.84;68.58;99424.09;5094635;28;19989;-70
2022/07/15 03:25:48;;;;;;;;;;;;;;;20.81;68.83;99445.81;5094160;28;19932;-70
2022/07/15 03:28:19;;;;;;;;;;;;;;;20.78;69.02;99455.53;5094211;28;19977;-70
2022/07/15 03:30:49;;;;;;;;;;;;;;;20.80;69.06;99449.34;5094335;28;19973;-70
2022/07/15 03:33:19;;;;;;;;;;;;;;;20.81;68.73;99440.63;5093188;28;20301;-71
2022/07/15 03:35:47;;;;;;;;;;;;;;;20.82;68.79;99437.16;5093267;28;19925;-70
2022/07/15 03:38:21;;;;;;;;;;;;;;;20.81;68.34;99437.19;5094102;28;19924;-70
2022/07/15 03:40:52;;;;;;;;;;;;;;;20.82;68.37;99437.16;5094454;28;19931;-71
2022/07/15 03:43:23;;;;;;;;;;;;;;;20.85;68.21;99436.97;5093195;28;20369;-71
2022/07/15 03:45:53;;;;;;;;;;;;;;;20.88;67.73;99442.03;5094040;28;19924;-71
2022/07/15 03:48:22;;;;;;;;;;;;;;;20.90;67.82;99445.41;5094224;28;19990;-71
2022/07/15 03:50:53;;;;;;;;;;;;;;;20.97;67.93;99446.78;5093369;28;19928;-71
2022/07/15 03:53:22;;;;;;;;;;;;;;;21.02;67.72;99460.41;5092712;28;19924;-71
2022/07/15 03:55:52;;;;;;;;;;;;;;;21.06;67.56;99461.13;5094276;28;19924;-71
2022/07/15 03:58:21;;;;;;;;;;;;;;;21.07;67.26;99458.47;5093017;28;19924;-71
2022/07/15 04:00:50;;;;;;;;;;;;;;;21.02;67.10;99455.22;5093055;28;20354;-70
2022/07/15 04:03:20;;;;;;;;;;;;;;;21.04;67.07;99461.16;5093325;28;19932;-71
2022/07/15 04:05:48;;;;;;;;;;;;;;;21.03;66.97;99462.09;5092611;28;19924;-70
2022/07/15 04:08:17;;;;;;;;;;;;;;;21.08;67.25;99465.34;5092566;28;19930;-70
2022/07/15 04:10:47;;;;;;;;;;;;;;;21.20;66.92;99467.38;5094026;28;19930;-70
2022/07/15 04:13:18;;;;;;;;;;;;;;;21.28;66.64;99464.41;5093759;28;20424;-70
2022/07/15 04:15:47;;;;;;;;;;;;;;;21.36;66.44;99468.31;5092624;28;20007;-70
2022/07/15 04:18:16;;;;;;;;;;;;;;;21.40;66.28;99470.78;5092780;28;19924;-70
2022/07/15 04:20:46;;;;;;;;;;;;;;;21.48;66.24;99476.41;5093657;28;19970;-70
2022/07/15 04:23:15;;;;;;;;;;;;;;;21.53;66.00;99484.81;5094254;28;19924;-70
2022/07/15 04:25:46;;;;;;;;;;;;;;;21.51;65.94;99482.31;5092513;28;20010;-70
2022/07/15 04:28:17;;;;;;;;;;;;;;;21.46;65.74;99484.28;5096324;28;19938;-70
2022/07/15 04:30:46;;;;;;;;;;;;;;;21.49;65.55;99491.09;5097420;28;19924;-70
2022/07/15 04:33:15;;;;;;;;;;;;;;;21.44;65.73;99493.91;5098000;28;19924;-70
2022/07/15 04:35:44;;;;;;;;;;;;;;;21.47;65.64;99496.38;5096148;28;20373;-70
2022/07/15 04:38:12;;;;;;;;;;;;;;;21.45;66.20;99499.97;5096127;28;19924;-70
2022/07/15 04:40:43;;;;;;;;;;;;;;;21.41;66.80;99503.59;5096067;28;19954;-70
2022/07/15 04:43:14;;;;;;;;;;;;;;;21.44;66.09;99500.88;5097276;28;19977;-70
2022/07/15 04:45:47;;;;;;;;;;;;;;;21.54;65.51;99505.56;5097518;28;20297;-70
2022/07/15 04:50:58;;;;;;;;;;;;;;;21.71;64.93;99507.34;5097067;28;19924;-70
2022/07/15 04:53:28;;;;;;;;;;;;;;;21.80;64.50;99515.53;5097090;28;19931;-70
2022/07/15 04:55:56;;;;;;;;;;;;;;;21.91;64.25;99515.00;5096142;28;19924;-70
2022/07/15 04:58:25;;;;;;;;;;;;;;;21.93;64.28;99523.59;5095741;28;19924;-70
2022/07/15 05:00:55;;;;;;;;;;;;;;;21.86;63.98;99527.38;5095938;28;20301;-70
2022/07/15 05:03:23;;;;;;;;;;;;;;;21.89;63.77;99532.44;5096029;28;19928;-70
2022/07/15 05:05:52;;;;;;;;;;;;;;;21.89;63.30;99533.28;5095628;28;19924;-69
2022/07/15 05:08:29;;;;;;;;;;;;;;;21.83;62.89;99538.78;5095653;28;20039;-68
2022/07/15 05:10:58;;;;;;;;;;;;;;;21.80;62.46;99530.25;5095495;28;20018;-69
2022/07/15 05:13:27;;;;;;;;;;;;;;;21.78;62.28;99524.31;5095465;28;19924;-68
2022/07/15 05:16:00;;;;;;;;;;;;;;;21.74;62.01;99530.56;5095805;28;20029;-69
2022/07/15 05:18:30;;;;;;;;;;;;;;;21.76;61.97;99531.34;5095708;28;19930;-68
2022/07/15 05:21:01;;;;;;;;;;;;;;;21.83;61.85;99537.91;5095360;28;19924;-69
2022/07/15 05:23:35;;;;;;;;;;;;;;;21.91;61.79;99535.81;5096838;28;19926;-68
2022/07/15 05:26:06;;;;;;;;;;;;;;;21.83;61.62;99543.13;5096482;28;19930;-68
2022/07/15 05:28:38;;;;;;;;;;;;;;;21.83;61.64;99537.91;5096659;28;19924;-68
2022/07/15 05:31:08;;;;;;;;;;;;;;;21.80;61.72;99543.25;5096180;28;20385;-68
2022/07/15 05:33:38;;;;;;;;;;;;;;;21.79;61.77;99551.97;5095127;28;19977;-69
2022/07/15 05:36:12;;;;;;;;;;;;;;;21.78;61.90;99556.34;5096631;28;19978;-68
2022/07/15 05:38:43;;;;;;;;;;;;;;;21.74;61.78;99553.97;5094777;28;19970;-68
2022/07/15 05:41:11;;;;;;;;;;;;;;;21.75;61.94;99555.63;5094851;28;19925;-69
2022/07/15 05:43:40;;;;;;;;;;;;;;;21.74;61.53;99570.38;5094909;28;19928;-69
2022/07/15 05:46:11;;;;;;;;;;;;;;;21.83;61.28;99569.94;5096335;28;19931;-68
2022/07/15 05:48:51;;;;;;;;;;;;;;;21.88;61.04;99577.56;5095935;28;19924;-70
2022/07/15 05:51:20;;;;;;;;;;;;;;;21.76;61.17;99575.50;5095341;28;20247;-68
2022/07/15 05:53:49;;;;;;;;;;;;;;;21.78;61.50;99581.47;5095848;28;19924;-68
2022/07/15 05:56:17;;;;;;;;;;;;;;;21.77;61.43;99590.16;5094949;28;19924;-68
2022/07/15 05:58:45;;;;;;;;;;;;;;;21.83;61.39;99589.91;5094882;28;20000;-68
2022/07/15 06:01:17;;;;;;;;;;;;;;;21.90;61.36;99591.31;5094524;28;19924;-69
2022/07/15 06:03:45;;;;;;;;;;;;;;;21.93;61.07;99597.19;5094533;28;19932;-68
2022/07/15 06:06:17;;;;;;;;;;;;;;;21.95;60.43;99599.72;5094438;28;19928;-69
2022/07/15 06:08:48;;;;;;;;;;;;;;;22.02;60.25;99606.31;5095490;28;19924;-69
2022/07/15 06:11:17;;;;;;;;;;;;;;;22.14;60.15;99616.13;5094269;28;19924;-69
2022/07/15 06:13:47;;;;;;;;;;;;;;;22.15;59.25;99616.97;5094771;28;19931;-69
2022/07/15 06:16:17;;;;;;;;;;;;;;;22.10;58.98;99619.75;5077555;28;19931;-68
2022/07/15 06:18:46;;;;;;;;;;;;;;;22.16;58.58;99624.69;5094581;28;19994;-69
2022/07/15 06:21:15;;;;;;;;;;;;;;;22.29;58.26;99619.72;5094053;28;19924;-69
2022/07/15 06:23:45;;;;;;;;;;;;;;;22.40;58.07;99617.44;5094461;28;19932;-69
2022/07/15 06:26:14;;;;;;;;;;;;;;;22.51;58.14;99625.53;5095253;28;20014;-69
2022/07/15 06:28:43;;;;;;;;;;;;;;;22.62;58.14;99623.28;5093887;28;20385;-68
2022/07/15 06:31:22;;;;;;;;;;;;;;;22.71;57.45;99621.94;5095771;28;20363;-70
2022/07/15 06:33:52;;;;;;;;;;;;;;;22.61;56.35;99627.63;5095409;28;19951;-68
2022/07/15 06:36:20;;;;;;;;;;;;;;;22.64;56.42;99627.50;5093807;28;19927;-69
2022/07/15 06:38:50;;;;;;;;;;;;;;;22.76;55.89;99625.16;5094087;28;20377;-68
2022/07/15 06:41:19;;;;;;;;;;;;;;;22.84;55.21;99636.03;5092963;27;19931;-69
2022/07/15 06:43:50;;;;;;;;;;;;;;;22.82;54.81;99632.69;5094840;28;19959;-69
2022/07/15 06:46:37;;;;;;;;;;;;;;;22.85;54.55;99640.31;5095217;28;19924;-69
2022/07/15 06:49:06;;;;;;;;;;;;;;;22.96;54.24;99638.81;5094464;28;19977;-69
2022/07/15 06:51:34;;;;;;;;;;;;;;;23.00;53.75;99639.53;5094380;28;19973;-70
2022/07/15 06:54:03;;;;;;;;;;;;;;;22.99;53.38;99640.44;5093491;28;19950;-68
2022/07/15 06:56:34;;;;;;;;;;;;;;;23.04;53.19;99641.03;5094818;28;19928;-70
2022/07/15 06:59:03;;;;;;;;;;;;;;;23.18;53.38;99638.53;5093444;28;20019;-69
2022/07/15 07:01:33;;;;;;;;;;;;;;;23.43;52.81;99648.53;5099378;28;19924;-69
2022/07/15 07:04:04;;;;;;;;;;;;;;;23.64;52.17;99653.44;5112511;28;19924;-67
2022/07/15 07:06:34;;;;;;;;;;;;;;;23.81;51.90;99650.75;5113244;28;20289;-67
2022/07/15 07:09:03;;;;;;;;;;;;;;;23.95;51.25;99658.66;5106259;28;19986;-68
2022/07/15 07:11:32;;;;;;;;;;;;;;;23.91;50.90;99662.34;5099698;28;19977;-67
2022/07/15 07:14:01;;;;;;;;;;;;;;;23.91;50.29;99657.16;5094427;28;20370;-66
2022/07/15 07:16:29;;;;;;;;;;;;;;;24.04;50.29;99656.47;5093435;28;19967;-68
2022/07/15 07:18:58;;;;;;;;;;;;;;;24.15;49.90;99670.59;5100775;28;19923;-67
2022/07/15 07:21:28;;;;;;;;;;;;;;;24.16;49.78;99666.25;5114463;28;19928;-68
2022/07/15 07:23:59;;;;;;;;;;;;;;;24.13;49.74;99676.84;5114640;28;19923;-67
2022/07/15 07:26:27;;;;;;;;;;;;;;;24.08;49.39;99678.84;5110912;28;19931;-67
2022/07/15 07:28:56;;;;;;;;;;;;;;;24.09;48.97;99673.53;5102693;28;19932;-67
2022/07/15 07:31:26;;;;;;;;;;;;;;;24.26;49.53;99683.06;5103359;28;19923;-67
2022/07/15 07:33:56;;;;;;;;;;;;;;;24.56;50.45;99681.28;5114441;28;19934;-66
2022/07/15 07:36:24;;;;;;;;;;;;;;;24.70;49.44;99683.09;5113395;28;19963;-69
2022/07/15 07:38:55;;;;;;;;;;;;;;;24.65;48.81;99681.59;5103165;28;20010;-68
2022/07/15 07:41:23;;;;;;;;;;;;;;;24.62;48.03;99686.16;5094232;28;19947;-66
2022/07/15 07:43:52;;;;;;;;;;;;;;;24.62;47.42;99691.38;5094006;28;19977;-68
2022/07/15 07:46:20;;;;;;;;;;;;;;;24.57;47.10;99688.22;5094425;28;19924;-69
2022/07/15 07:48:49;;;;;;;;;;;;;;;24.49;46.95;99685.19;5093945;28;19931;-67
2022/07/15 07:51:29;;;;;;;;;;;;;;;24.47;46.78;99692.28;5093966;28;19924;-67
2022/07/15 07:53:58;;;;;;;;;;;;;;;24.56;46.55;99696.97;5099048;28;20369;-69
2022/07/15 07:56:27;;;;;;;;;;;;;;;24.62;46.30;99691.38;5107342;28;19924;-68
2022/07/15 07:58:55;;;;;;;;;;;;;;;24.78;46.58;99697.44;5098419;28;19935;-67
2022/07/15 08:01:23;;;;;;;;;;;;;;;24.98;46.56;99704.09;5095666;28;19969;-69
2022/07/15 08:03:52;;;;;;;;;;;;;;;24.98;44.79;99697.06;5098293;28;19925;-66
2022/07/15 08:06:22;;;;;;;;;;;;;;;24.99;43.42;99705.75;5097910;28;19924;-66
2022/07/15 08:08:51;;;;;;;;;;;;;;;25.12;43.46;99706.72;5097841;28;19931;-67
2022/07/15 08:11:21;;;;;;;;;;;;;;;25.24;43.53;99712.03;5098044;28;19928;-69
2022/07/15 08:13:49;;;;;;;;;;;;;;;25.42;43.78;99704.00;5097833;28;19924;-66
2022/07/15 08:16:18;;;;;;;;;;;;;;;25.58;43.43;99704.81;5096509;28;20373;-66
2022/07/15 08:18:46;;;;;;;;;;;;;;;25.70;42.50;99702.25;5116593;28;20001;-69
2022/07/15 08:21:15;;;;;;;;;;;;;;;25.79;41.40;99703.47;5117982;28;19934;-67
2022/07/15 08:23:45;;;;;;;;;;;;;;;25.85;40.82;99703.06;5119004;28;20315;-66
2022/07/15 08:26:18;;;;;;;;;;;;;;;25.84;39.55;99710.06;5118048;28;20323;-66
2022/07/15 08:28:48;;;;;;;;;;;;;;;25.89;39.60;99708.00;5117637;28;19967;-68
2022/07/15 08:31:34;;;;;;;;;;;;;;;25.83;39.70;99708.41;5118309;28;19924;-66
2022/07/15 08:34:03;;;;;;;;;;;;;;;25.84;39.77;99709.25;5117807;28;19972;-69
2022/07/15 08:36:32;;;;;;;;;;;;;;;25.90;39.85;99695.78;5118191;28;19924;-69
2022/07/15 08:39:00;;;;;;;;;;;;;;;25.99;40.13;99705.66;5118066;28;19923;-67
2022/07/15 08:41:30;;;;;;;;;;;;;;;25.80;38.47;99702.53;5111376;28;19930;-68
2022/07/15 08:44:00;;;;;;;;;;;;;;;25.77;38.83;99702.72;5108879;28;19924;-66
2022/07/15 08:46:29;;;;;;;;;;;;;;;25.85;39.02;99703.06;5117932;28;19978;-66
2022/07/15 08:49:02;;;;;;;;;;;;;;;25.83;38.96;99699.72;5117678;28;20033;-66
2022/07/15 08:51:31;;;;;;;;;;;;;;;25.89;38.92;99701.97;5117874;27;19930;-66
2022/07/15 08:53:59;;;;;;;;;;;;;;;26.03;39.00;99696.69;5117722;28;20381;-67
2022/07/15 08:56:28;;;;;;;;;;;;;;;26.27;38.54;99699.53;5117137;28;20358;-68
2022/07/15 08:58:57;;;;;;;;;;;;;;;26.39;38.32;99699.59;5117871;28;20246;-66
2022/07/15 09:01:29;;;;;;;;;;;;;;;26.59;37.75;99693.88;5117680;28;20289;-66
2022/07/15 09:03:58;;;;;;;;;;;;;;;26.89;37.56;99705.91;5117576;28;20019;-67
2022/07/15 09:06:33;;;;;;;;;;;;;;;27.20;37.42;99708.13;5115709;28;20004;-67
2022/07/15 09:09:13;;;;;;;;;;;;;;;27.34;35.96;99718.50;5101370;28;20293;-65
2022/07/15 09:11:41;;;;;;;;;;;;;;;27.35;34.83;99717.56;5097038;28;19924;-67
2022/07/15 09:14:13;;;;;;;;;;;;;;;27.52;35.27;99722.47;5095796;28;19967;-67
2022/07/15 09:16:43;;;;;;;;;;;;;;;27.65;34.67;99715.44;5096930;28;20002;-67
2022/07/15 09:19:11;;;;;;;;;;;;;;;27.69;34.32;99706.41;5096658;28;19924;-66
2022/07/15 09:21:43;;;;;;;;;;;;;;;27.66;33.71;99711.91;5107739;28;19928;-66
2022/07/15 09:24:18;;;;;;;;;;;;;;;27.72;33.66;99705.34;5096819;28;19924;-66
2022/07/15 09:26:47;;;;;;;;;;;;;;;27.76;33.62;99704.22;5096759;28;20042;-66
2022/07/15 09:35:00;;;;;;;;;;;;;;;27.69;32.42;99709.03;5084260;28;19991;-69
2022/07/15 09:37:28;;;;;;;;;;;;;;;27.70;32.35;99708.09;5103113;28;19962;-69
2022/07/15 09:39:57;;;;;;;;;;;;;;;27.76;32.45;99707.66;5116801;28;19927;-68
2022/07/15 09:42:26;;;;;;;;;;;;;;;27.73;31.95;99707.03;5112758;28;19928;-67
2022/07/15 09:44:54;;;;;;;;;;;;;;;27.62;32.17;99707.78;5096084;28;19935;-69
2022/07/15 09:47:25;;;;;;;;;;;;;;;27.61;32.21;99703.50;5114202;28;19985;-69
2022/07/15 09:49:53;;;;;;;;;;;;;;;27.73;33.11;99701.81;5116311;28;20373;-67
2022/07/15 09:52:21;;;;;;;;;;;;;;;27.78;33.04;99697.06;5116557;28;19953;-70
2022/07/15 09:54:50;;;;;;;;;;;;;;;27.83;33.09;99714.13;5116577;27;19973;-68
2022/07/15 09:57:21;;;;;;;;;;;;;;;27.97;32.63;99704.47;5116558;28;19924;-66
2022/07/15 09:59:51;;;;;;;;;;;;;;;27.75;32.03;99706.00;5116643;28;19931;-68
2022/07/15 10:02:19;;;;;;;;;;;;;;;27.66;32.32;99703.19;5116065;28;19923;-67
2022/07/15 10:04:50;;;;;;;;;;;;;;;27.77;32.05;99693.59;5115966;28;19938;-69
2022/07/15 10:07:22;;;;;;;;;;;;;;;27.80;31.39;99698.63;5115742;28;19949;-69
2022/07/15 10:09:56;;;;;;;;;;;;;;;27.87;31.18;99694.63;5115865;28;19923;-67
2022/07/15 10:12:43;;;;;;;;;;;;;;;28.11;31.44;99692.06;5116235;28;20014;-67
2022/07/15 10:15:14;;;;;;;;;;;;;;;28.18;31.10;99692.44;5115911;28;19973;-67
2022/07/15 10:17:52;;;;;;;;;;;;;;;28.20;32.18;99690.53;5115015;28;19923;-69
2022/07/15 10:20:37;;;;;;;;;;;;;;;28.16;31.67;99695.19;5116044;28;19924;-68
2022/07/15 10:23:12;;;;;;;;;;;;;;;28.19;31.84;99699.38;5108090;28;19927;-67
2022/07/15 10:25:49;;;;;;;;;;;;;;;28.41;31.81;99694.22;5102687;28;19924;-69
2022/07/15 10:28:21;;;;;;;;;;;;;;;28.50;31.32;99696.16;5095633;28;19924;-69
2022/07/15 10:31:13;;;;;;;;;;;;;;;28.53;31.25;99690.66;5094993;28;19924;-69
2022/07/15 10:33:42;;;;;;;;;;;;;;;28.53;30.88;99694.13;5095205;28;20050;-68
2022/07/15 10:36:15;;;;;;;;;;;;;;;28.50;30.39;99693.53;5095089;28;20370;-70
2022/07/15 10:38:44;;;;;;;;;;;;;;;28.30;30.23;99691.53;5095597;28;19925;-69
2022/07/15 10:41:14;;;;;;;;;;;;;;;28.33;31.55;99699.19;5095315;28;20037;-68
2022/07/15 10:43:45;;;;;;;;;;;;;;;28.41;31.41;99688.97;5094971;28;19968;-68
2022/07/15 10:46:21;;;;;;;;;;;;;;;28.43;30.91;99697.56;5095267;28;19963;-68
2022/07/15 10:48:51;;;;;;;;;;;;;;;28.59;30.63;99692.84;5094930;28;19931;-70
2022/07/15 10:51:29;;;;;;;;;;;;;;;28.62;30.56;99702.34;5095108;28;19924;-68
2022/07/15 10:53:59;;;;;;;;;;;;;;;28.60;30.68;99699.84;5094825;28;19924;-68
2022/07/15 10:56:29;;;;;;;;;;;;;;;28.62;30.35;99691.81;5093805;28;20277;-71
2022/07/15 10:59:08;;;;;;;;;;;;;;;28.70;30.66;99690.28;5095803;28;19969;-70
2022/07/15 11:01:37;;;;;;;;;;;;;;;28.71;30.03;99697.22;5094701;28;19928;-69
2022/07/15 11:04:13;;;;;;;;;;;;;;;28.72;29.19;99698.91;5094833;28;20289;-67
2022/07/15 11:07:02;;;;;;;;;;;;;;;28.71;29.02;99697.22;5094918;28;20419;-67
2022/07/15 11:09:42;;;;;;;;;;;;;;;28.86;29.72;99695.25;5069456;28;19924;-67
2022/07/15 11:12:12;;;;;;;;;;;;;;;29.03;29.53;99703.50;5094649;28;19924;-69
2022/07/15 11:14:44;;;;;;;;;;;;;;;28.88;28.05;99703.84;5095080;28;20449;-68
2022/07/15 11:17:16;;;;;;;;;;;;;;;28.82;28.17;99689.38;5101717;28;20300;-68
2022/07/15 11:19:49;;;;;;;;;;;;;;;28.76;28.64;99695.09;5097413;28;19930;-69
2022/07/15 11:22:20;;;;;;;;;;;;;;;28.76;28.35;99692.47;5093118;28;19978;-67
2022/07/15 11:24:49;;;;;;;;;;;;;;;28.71;28.77;99691.13;5094649;28;19927;-71
2022/07/15 11:27:19;;;;;;;;;;;;;;;28.81;29.17;99692.97;5100265;28;20285;-68
2022/07/15 11:29:49;;;;;;;;;;;;;;;28.87;29.27;99695.09;5114211;28;20010;-68
2022/07/15 11:32:18;;;;;;;;;;;;;;;28.52;28.35;99699.50;5108142;28;19928;-68
2022/07/15 11:34:47;;;;;;;;;;;;;;;28.24;29.11;99697.25;5093987;28;19928;-68
2022/07/15 11:37:19;;;;;;;;;;;;;;;28.10;28.73;99692.97;5094053;28;19985;-67
2022/07/15 11:39:49;;;;;;;;;;;;;;;28.15;28.77;99697.91;5094064;28;19924;-71
2022/07/15 11:44:57;;;;;;;;;;;;;;;28.04;28.78;99710.97;5093686;28;19924;-70
2022/07/15 11:47:26;;;;;;;;;;;;;;;27.95;28.29;99707.19;5094376;28;20369;-69
2022/07/15 11:49:59;;;;;;;;;;;;;;;27.99;28.26;99699.94;5094300;28;19927;-72
2022/07/15 11:52:28;;;;;;;;;;;;;;;28.08;28.83;99704.53;5093958;28;19956;-70
2022/07/15 11:54:56;;;;;;;;;;;;;;;28.01;28.87;99698.06;5093892;28;19927;-73
2022/07/15 11:57:33;;;;;;;;;;;;;;;27.97;28.67;99704.47;5093400;28;19975;-70
2022/07/15 12:00:02;;;;;;;;;;;;;;;28.01;28.79;99691.03;5093906;28;19963;-70
2022/07/15 12:02:39;;;;;;;;;;;;;;;28.06;28.74;99701.19;5093143;28;20431;-71
2022/07/15 12:05:08;;;;;;;;;;;;;;;28.11;29.19;99701.72;5093275;28;19967;-70
2022/07/15 12:07:43;;;;;;;;;;;;;;;28.01;28.69;99693.66;5093054;28;19928;-69
2022/07/15 12:10:12;;;;;;;;;;;;;;;28.16;28.65;99694.34;5093426;28;19978;-69
2022/07/15 12:12:43;;;;;;;;;;;;;;;28.15;28.65;99703.16;5093677;28;19974;-68
2022/07/15 12:15:12;;;;;;;;;;;;;;;28.35;29.26;99708.66;5093860;28;20353;-66
2022/07/15 12:17:41;;;;;;;;;;;;;;;28.74;30.01;99718.03;5093673;28;20431;-68
2022/07/15 12:20:10;;;;;;;;;;;;;;;28.99;29.74;99712.59;5093622;28;19924;-67
2022/07/15 12:23:00;;;;;;;;;;;;;;;29.19;29.04;99709.31;5093820;28;19950;-68
2022/07/15 12:25:28;;;;;;;;;;;;;;;29.03;28.47;99707.94;5093740;28;20482;-67
2022/07/15 12:27:58;;;;;;;;;;;;;;;28.90;28.50;99702.78;5092947;28;19950;-70
2022/07/15 12:30:33;;;;;;;;;;;;;;;28.87;28.57;99713.50;5093546;28;19928;-68
2022/07/15 12:33:13;;;;;;;;;;;;;;;28.92;29.73;99700.84;5093751;28;19924;-68
2022/07/15 12:35:41;;;;;;;;;;;;;;;28.93;29.67;99697.28;5096500;28;20441;-66
2022/07/15 12:38:10;;;;;;;;;;;;;;;28.93;29.51;99705.19;5101148;28;19931;-67
2022/07/15 12:40:39;;;;;;;;;;;;;;;28.70;28.65;99705.25;5107211;28;19977;-68
2022/07/15 12:43:09;;;;;;;;;;;;;;;28.76;28.49;99700.34;5113794;28;19935;-67
2022/07/15 12:45:37;;;;;;;;;;;;;;;28.90;28.65;99708.03;5107548;28;19927;-68
2022/07/15 12:48:07;;;;;;;;;;;;;;;29.13;29.73;99704.47;5098477;28;20289;-67
2022/07/15 12:50:36;;;;;;;;;;;;;;;29.26;28.55;99704.41;5103543;28;20019;-68
2022/07/15 12:53:05;;;;;;;;;;;;;;;29.26;28.08;99719.34;5096967;28;19924;-70
2022/07/15 12:55:41;;;;;;;;;;;;;;;29.14;27.78;99711.41;5097439;28;19924;-69
2022/07/15 12:58:12;;;;;;;;;;;;;;;29.23;27.92;99706.47;5096641;28;20419;-67
2022/07/15 13:00:40;;;;;;;;;;;;;;;29.07;28.02;99720.72;5096653;28;19963;-69
2022/07/15 13:03:10;;;;;;;;;;;;;;;28.74;27.49;99707.50;5097524;28;20358;-67
2022/07/15 13:05:39;;;;;;;;;;;;;;;28.83;27.56;99709.44;5097207;28;19970;-68
2022/07/15 13:08:07;;;;;;;;;;;;;;;28.91;28.09;99709.72;5097044;28;19928;-66
2022/07/15 13:10:36;;;;;;;;;;;;;;;28.92;28.62;99706.13;5097025;28;19924;-69
2022/07/15 13:13:05;;;;;;;;;;;;;;;28.91;29.18;99707.09;5096595;28;19974;-68
2022/07/15 13:15:35;;;;;;;;;;;;;;;28.87;28.22;99696.88;5097034;28;20425;-69
2022/07/15 13:18:04;;;;;;;;;;;;;;;28.77;27.94;99707.25;5096859;28;20366;-67
2022/07/15 13:20:32;;;;;;;;;;;;;;;28.62;28.12;99692.66;5096571;28;19925;-70
2022/07/15 13:23:01;;;;;;;;;;;;;;;28.34;28.71;99703.47;5096464;28;19969;-68